Revelstoke Airport

CYRV | YRV

Revelstoke , British Columbia , Canada

Saturday, September 21st, 2019 | 04:33

Weather

CYRV 211130Z AUTO 00000KT 2 1/4SM BR FEW003 07/07 A3009 RMK SLP197

Charts

No Charts Available

Gates

10 Available

Runways

1 Available

Events

No events for this airport


New event